sensor_id;sensor_type;location;lat;lon;timestamp;P1;durP1;ratioP1;P2;durP2;ratioP2
72674;SDS011;60752;53.962;9.614;2023-08-30T00:29:20;4.83;;;2.30;;
72674;SDS011;60752;53.962;9.614;2023-08-30T00:59:21;5.67;;;2.80;;
72674;SDS011;60752;53.962;9.614;2023-08-30T01:29:24;9.77;;;3.97;;
72674;SDS011;60752;53.962;9.614;2023-08-30T01:59:26;7.57;;;3.87;;
72674;SDS011;60752;53.962;9.614;2023-08-30T02:29:27;8.10;;;4.07;;
72674;SDS011;60752;53.962;9.614;2023-08-30T02:59:29;6.63;;;3.53;;
72674;SDS011;60752;53.962;9.614;2023-08-30T03:29:31;10.00;;;4.40;;
72674;SDS011;60752;53.962;9.614;2023-08-30T03:59:32;10.57;;;4.70;;
72674;SDS011;60752;53.962;9.614;2023-08-30T04:29:34;9.97;;;4.80;;
72674;SDS011;60752;53.962;9.614;2023-08-30T04:59:36;11.97;;;5.10;;
72674;SDS011;60752;53.962;9.614;2023-08-30T05:29:37;12.03;;;5.20;;
72674;SDS011;60752;53.962;9.614;2023-08-30T05:59:39;12.97;;;6.17;;
72674;SDS011;60752;53.962;9.614;2023-08-30T06:29:40;12.67;;;6.87;;
72674;SDS011;60752;53.962;9.614;2023-08-30T06:59:42;14.37;;;6.73;;
72674;SDS011;60752;53.962;9.614;2023-08-30T07:29:44;11.27;;;6.50;;
72674;SDS011;60752;53.962;9.614;2023-08-30T07:59:45;11.30;;;5.90;;
72674;SDS011;60752;53.962;9.614;2023-08-30T08:29:47;12.33;;;6.57;;
72674;SDS011;60752;53.962;9.614;2023-08-30T08:59:48;10.73;;;6.17;;
72674;SDS011;60752;53.962;9.614;2023-08-30T09:29:50;14.80;;;6.00;;
72674;SDS011;60752;53.962;9.614;2023-08-30T09:59:52;9.20;;;5.00;;
72674;SDS011;60752;53.962;9.614;2023-08-30T10:29:53;7.77;;;4.43;;
72674;SDS011;60752;53.962;9.614;2023-08-30T11:00:05;7.87;;;4.60;;
72674;SDS011;60752;53.962;9.614;2023-08-30T11:30:08;11.10;;;5.00;;
72674;SDS011;60752;53.962;9.614;2023-08-30T12:00:10;9.80;;;4.40;;
72674;SDS011;60752;53.962;9.614;2023-08-30T12:30:12;11.17;;;4.57;;
72674;SDS011;60752;53.962;9.614;2023-08-30T13:00:14;8.37;;;3.93;;
72674;SDS011;60752;53.962;9.614;2023-08-30T13:30:16;8.93;;;3.97;;
72674;SDS011;60752;53.962;9.614;2023-08-30T14:00:18;9.30;;;4.27;;
72674;SDS011;60752;53.962;9.614;2023-08-30T14:30:20;9.57;;;4.60;;
72674;SDS011;60752;53.962;9.614;2023-08-30T15:00:22;10.30;;;4.73;;
72674;SDS011;60752;53.962;9.614;2023-08-30T15:30:23;7.87;;;3.60;;
72674;SDS011;60752;53.962;9.614;2023-08-30T16:00:25;8.57;;;4.30;;
72674;SDS011;60752;53.962;9.614;2023-08-30T16:30:27;7.57;;;5.03;;
72674;SDS011;60752;53.962;9.614;2023-08-30T17:00:28;13.23;;;7.40;;
72674;SDS011;60752;53.962;9.614;2023-08-30T17:30:30;12.03;;;7.20;;
72674;SDS011;60752;53.962;9.614;2023-08-30T18:00:31;13.80;;;6.90;;
72674;SDS011;60752;53.962;9.614;2023-08-30T18:30:33;11.10;;;7.40;;
72674;SDS011;60752;53.962;9.614;2023-08-30T19:00:35;14.23;;;8.03;;
72674;SDS011;60752;53.962;9.614;2023-08-30T19:30:36;14.37;;;7.90;;
72674;SDS011;60752;53.962;9.614;2023-08-30T20:00:38;11.83;;;7.07;;
72674;SDS011;60752;53.962;9.614;2023-08-30T20:30:45;14.33;;;8.20;;
72674;SDS011;60752;53.962;9.614;2023-08-30T21:00:54;18.77;;;9.23;;
72674;SDS011;60752;53.962;9.614;2023-08-30T21:30:55;13.17;;;8.07;;
72674;SDS011;60752;53.962;9.614;2023-08-30T22:00:57;13.77;;;7.97;;
72674;SDS011;60752;53.962;9.614;2023-08-30T22:30:59;9.73;;;5.97;;
72674;SDS011;60752;53.962;9.614;2023-08-30T23:01:02;7.17;;;3.77;;
72674;SDS011;60752;53.962;9.614;2023-08-30T23:31:03;5.57;;;2.60;;
